Time;durP1;ratioP1;P1;durP2;ratioP2;P2;SDS_P1;SDS_P2;PMS_P1;PMS_P2;Temp;Humidity;BMP_temperature;BMP_pressure;BME280_temperature;BME280_humidity;BME280_pressure;Samples;Min_cycle;Max_cycle;Signal;HPM_P1;HPM_P2
2021/09/01 00:01:26;;;;;;;;;25.00;23.50;;;;;;;;5065759;28;51128;-56
2021/09/01 00:03:52;;;;;;;;;24.50;24.00;;;;;;;;5072128;28;50903;-57
2021/09/01 00:06:17;;;;;;;;;27.75;27.00;;;;;;;;5074600;28;50936;-57
2021/09/01 00:08:43;;;;;;;;;23.50;21.75;;;;;;;;5075019;28;50933;-57
2021/09/01 00:11:08;;;;;;;;;26.25;26.00;;;;;;;;5073793;28;51052;-56
2021/09/01 00:13:33;;;;;;;;;27.75;25.00;;;;;;;;5074822;28;51016;-56
2021/09/01 00:15:58;;;;;;;;;27.00;24.50;;;;;;;;5055519;28;50943;-55
2021/09/01 00:18:24;;;;;;;;;24.25;23.50;;;;;;;;5074490;28;51444;-55
2021/09/01 00:20:49;;;;;;;;;22.50;22.25;;;;;;;;5070330;28;52128;-56
2021/09/01 00:23:14;;;;;;;;;23.25;21.25;;;;;;;;5052922;28;50948;-56
2021/09/01 00:25:41;;;;;;;;;28.50;25.75;;;;;;;;5074806;28;51122;-57
2021/09/01 00:28:06;;;;;;;;;24.50;23.25;;;;;;;;5054182;28;51176;-56
2021/09/01 00:30:31;;;;;;;;;25.50;25.50;;;;;;;;5073375;28;52032;-56
2021/09/01 00:32:56;;;;;;;;;26.50;25.00;;;;;;;;5074772;28;51072;-56
2021/09/01 00:35:21;;;;;;;;;27.50;24.75;;;;;;;;5070447;28;51176;-58
2021/09/01 00:37:47;;;;;;;;;25.25;24.00;;;;;;;;5068826;28;51033;-56
2021/09/01 00:40:12;;;;;;;;;24.50;22.25;;;;;;;;5074482;28;52231;-57
2021/09/01 00:42:37;;;;;;;;;23.00;21.50;;;;;;;;5070982;28;51266;-57
2021/09/01 00:45:04;;;;;;;;;27.75;26.50;;;;;;;;5074361;28;51099;-54
2021/09/01 00:47:30;;;;;;;;;27.25;27.25;;;;;;;;5067254;28;51367;-56
2021/09/01 00:49:55;;;;;;;;;26.50;26.50;;;;;;;;5074152;28;52283;-57
2021/09/01 00:52:20;;;;;;;;;30.50;29.50;;;;;;;;5071280;28;51152;-57
2021/09/01 00:54:47;;;;;;;;;28.00;27.00;;;;;;;;5046761;28;51138;-57
2021/09/01 00:57:12;;;;;;;;;29.25;25.75;;;;;;;;5074534;28;51091;-55
2021/09/01 00:59:38;;;;;;;;;31.00;29.00;;;;;;;;5055878;28;53664;-56
2021/09/01 01:02:04;;;;;;;;;30.25;28.25;;;;;;;;5053433;28;51116;-55
2021/09/01 01:04:30;;;;;;;;;24.25;23.50;;;;;;;;5074330;28;51324;-58
2021/09/01 01:06:59;;;;;;;;;24.25;23.50;;;;;;;;5072069;28;51118;-55
2021/09/01 01:09:24;;;;;;;;;27.50;27.25;;;;;;;;5072733;28;52405;-54
2021/09/01 01:11:58;;;;;;;;;28.00;27.50;;;;;;;;5072656;28;51085;-55
2021/09/01 01:14:24;;;;;;;;;26.50;26.00;;;;;;;;5073900;28;51115;-55
2021/09/01 01:16:49;;;;;;;;;30.75;29.25;;;;;;;;5061043;28;51367;-56
2021/09/01 01:19:16;;;;;;;;;36.00;30.75;;;;;;;;5073827;28;51188;-57
2021/09/01 01:21:41;;;;;;;;;33.25;28.00;;;;;;;;5065504;28;51278;-56
2021/09/01 01:24:06;;;;;;;;;28.75;27.75;;;;;;;;5074091;28;50977;-56
2021/09/01 01:26:32;;;;;;;;;28.25;26.00;;;;;;;;5043825;28;51244;-57
2021/09/01 01:28:59;;;;;;;;;29.75;27.75;;;;;;;;5065689;28;52195;-56
2021/09/01 01:31:24;;;;;;;;;29.25;27.50;;;;;;;;5049227;28;51208;-56
2021/09/01 01:33:50;;;;;;;;;27.00;26.25;;;;;;;;5073759;28;50910;-57
2021/09/01 01:36:15;;;;;;;;;26.25;24.25;;;;;;;;5065070;28;51423;-56
2021/09/01 01:38:41;;;;;;;;;29.25;28.25;;;;;;;;5068781;28;51151;-56
2021/09/01 01:41:06;;;;;;;;;31.25;29.50;;;;;;;;5069714;28;51175;-56
2021/09/01 01:43:36;;;;;;;;;30.50;27.50;;;;;;;;5073907;28;51182;-57
2021/09/01 01:46:01;;;;;;;;;33.25;30.25;;;;;;;;5071676;28;51368;-56
2021/09/01 01:48:26;;;;;;;;;27.25;26.75;;;;;;;;5073242;28;51042;-56
2021/09/01 01:50:51;;;;;;;;;23.50;23.50;;;;;;;;5072168;28;51107;-57
2021/09/01 01:53:16;;;;;;;;;28.50;27.50;;;;;;;;5072895;28;51082;-57
2021/09/01 01:55:42;;;;;;;;;32.25;30.25;;;;;;;;5071938;28;51446;-57
2021/09/01 01:58:07;;;;;;;;;29.25;28.25;;;;;;;;5073052;28;52277;-57
2021/09/01 02:00:33;;;;;;;;;33.25;29.00;;;;;;;;5072192;28;51109;-57
2021/09/01 02:02:58;;;;;;;;;24.50;24.25;;;;;;;;5072389;28;51101;-56
2021/09/01 02:05:23;;;;;;;;;34.00;30.00;;;;;;;;5071880;28;51209;-56
2021/09/01 02:07:48;;;;;;;;;32.25;31.00;;;;;;;;5073270;28;51887;-56
2021/09/01 02:10:14;;;;;;;;;36.00;33.00;;;;;;;;5053902;28;51179;-57
2021/09/01 02:12:40;;;;;;;;;29.00;27.50;;;;;;;;5062885;28;50910;-56
2021/09/01 02:15:06;;;;;;;;;36.00;32.00;;;;;;;;5072192;28;51133;-56
2021/09/01 02:17:31;;;;;;;;;41.00;34.75;;;;;;;;5072042;28;52399;-57
2021/09/01 02:19:57;;;;;;;;;31.50;30.00;;;;;;;;5071959;28;51033;-57
2021/09/01 02:22:22;;;;;;;;;35.00;32.75;;;;;;;;5071182;28;50929;-57
2021/09/01 02:24:48;;;;;;;;;29.25;28.25;;;;;;;;5073169;28;51282;-56
2021/09/01 02:27:13;;;;;;;;;35.25;32.50;;;;;;;;5069863;28;51108;-57
2021/09/01 02:29:39;;;;;;;;;32.50;28.75;;;;;;;;5054605;28;51080;-56
2021/09/01 02:32:04;;;;;;;;;32.25;29.75;;;;;;;;5065208;28;51080;-56
2021/09/01 02:34:30;;;;;;;;;32.25;30.00;;;;;;;;5054731;28;51343;-56
2021/09/01 02:36:56;;;;;;;;;27.50;26.50;;;;;;;;5070868;28;52151;-56
2021/09/01 02:39:21;;;;;;;;;38.75;34.25;;;;;;;;5067214;28;51076;-56
2021/09/01 02:41:46;;;;;;;;;31.50;30.75;;;;;;;;5071727;28;51006;-56
2021/09/01 02:44:11;;;;;;;;;36.25;33.25;;;;;;;;5072887;28;50946;-57
2021/09/01 02:46:36;;;;;;;;;32.25;31.00;;;;;;;;5068218;28;51826;-57
2021/09/01 02:49:02;;;;;;;;;31.25;30.25;;;;;;;;5067815;28;51099;-56
2021/09/01 02:51:27;;;;;;;;;33.00;31.00;;;;;;;;5070917;28;52536;-55
2021/09/01 02:53:52;;;;;;;;;38.50;33.25;;;;;;;;5072602;28;50912;-57
2021/09/01 02:56:17;;;;;;;;;35.00;32.75;;;;;;;;5067984;28;51056;-56
2021/09/01 02:58:42;;;;;;;;;39.00;34.00;;;;;;;;5072589;28;51017;-56
2021/09/01 03:01:08;;;;;;;;;37.00;33.50;;;;;;;;5071109;28;51322;-55
2021/09/01 03:03:33;;;;;;;;;33.00;29.75;;;;;;;;5071478;28;51073;-57
2021/09/01 03:05:58;;;;;;;;;36.25;31.50;;;;;;;;5070005;28;51942;-56
2021/09/01 03:08:23;;;;;;;;;38.00;33.50;;;;;;;;5074692;28;51176;-56
2021/09/01 03:10:48;;;;;;;;;40.25;33.75;;;;;;;;5075239;28;51116;-56
2021/09/01 03:13:14;;;;;;;;;37.00;31.75;;;;;;;;5072312;28;51355;-57
2021/09/01 03:15:39;;;;;;;;;32.75;31.75;;;;;;;;5074471;28;50973;-56
2021/09/01 03:18:04;;;;;;;;;35.50;32.75;;;;;;;;5076006;28;51063;-57
2021/09/01 03:20:29;;;;;;;;;31.00;29.50;;;;;;;;5074437;28;51163;-56
2021/09/01 03:22:54;;;;;;;;;34.25;32.50;;;;;;;;5048745;28;51452;-56
2021/09/01 03:25:20;;;;;;;;;31.50;30.50;;;;;;;;5075734;28;50914;-56
2021/09/01 03:27:45;;;;;;;;;28.25;28.25;;;;;;;;5069502;27;51158;-56
2021/09/01 03:30:10;;;;;;;;;37.00;33.00;;;;;;;;5056265;28;51006;-56
2021/09/01 03:32:36;;;;;;;;;33.50;31.00;;;;;;;;5074830;28;51087;-57
2021/09/01 03:35:02;;;;;;;;;33.75;31.25;;;;;;;;5074701;28;52411;-56
2021/09/01 03:37:27;;;;;;;;;32.00;31.00;;;;;;;;5054015;28;51187;-57
2021/09/01 03:39:52;;;;;;;;;30.25;29.75;;;;;;;;5075720;28;51180;-55
2021/09/01 03:42:17;;;;;;;;;35.00;31.50;;;;;;;;5053421;28;51359;-55
2021/09/01 03:44:43;;;;;;;;;34.00;32.00;;;;;;;;5075275;28;52225;-56
2021/09/01 03:47:08;;;;;;;;;32.00;31.00;;;;;;;;5075566;28;51010;-57
2021/09/01 03:49:33;;;;;;;;;31.00;29.00;;;;;;;;5075667;28;51021;-57
2021/09/01 03:51:58;;;;;;;;;35.25;32.50;;;;;;;;5074062;28;50905;-57
2021/09/01 03:54:24;;;;;;;;;30.75;27.50;;;;;;;;5075048;28;52227;-56
2021/09/01 03:56:49;;;;;;;;;31.00;30.25;;;;;;;;5075114;28;51105;-57
2021/09/01 03:59:14;;;;;;;;;35.25;31.75;;;;;;;;5075170;28;51243;-57
2021/09/01 04:01:39;;;;;;;;;29.75;28.25;;;;;;;;5060423;28;51169;-55
2021/09/01 04:04:05;;;;;;;;;30.50;28.50;;;;;;;;5074622;28;52644;-55
2021/09/01 04:06:31;;;;;;;;;34.25;31.00;;;;;;;;5073663;28;50975;-55
2021/09/01 04:08:56;;;;;;;;;30.75;29.50;;;;;;;;5075058;28;51185;-58
2021/09/01 04:11:21;;;;;;;;;28.75;27.75;;;;;;;;5073701;28;51090;-56
2021/09/01 04:13:46;;;;;;;;;27.00;26.25;;;;;;;;5073354;28;51920;-57
2021/09/01 04:16:11;;;;;;;;;34.50;31.25;;;;;;;;5075198;28;50871;-57
2021/09/01 04:18:37;;;;;;;;;32.50;29.50;;;;;;;;5074857;28;50999;-58
2021/09/01 04:21:02;;;;;;;;;33.00;30.25;;;;;;;;5071745;28;50963;-57
2021/09/01 04:23:27;;;;;;;;;33.50;31.00;;;;;;;;5073484;28;52227;-54
2021/09/01 04:25:52;;;;;;;;;35.25;31.25;;;;;;;;5074898;28;51010;-55
2021/09/01 04:28:18;;;;;;;;;34.50;31.50;;;;;;;;5074812;28;51040;-57
2021/09/01 04:30:43;;;;;;;;;37.25;32.50;;;;;;;;5073911;28;51327;-56
2021/09/01 04:33:08;;;;;;;;;32.50;31.00;;;;;;;;5074402;28;50999;-57
2021/09/01 04:35:33;;;;;;;;;33.50;32.25;;;;;;;;5073526;28;50953;-57
2021/09/01 04:37:58;;;;;;;;;33.25;30.75;;;;;;;;5074584;28;51227;-54
2021/09/01 04:40:24;;;;;;;;;36.25;33.50;;;;;;;;5073633;28;51771;-55
2021/09/01 04:42:49;;;;;;;;;33.00;31.00;;;;;;;;5074254;28;51041;-55
2021/09/01 04:45:14;;;;;;;;;34.50;31.75;;;;;;;;5074716;28;51040;-56
2021/09/01 04:47:39;;;;;;;;;33.75;32.00;;;;;;;;5074495;28;50863;-57
2021/09/01 04:50:05;;;;;;;;;33.25;30.25;;;;;;;;5072274;28;50905;-56
2021/09/01 04:52:30;;;;;;;;;35.25;31.25;;;;;;;;5072990;28;53001;-56
2021/09/01 04:54:55;;;;;;;;;38.75;32.75;;;;;;;;5072307;28;51058;-59
2021/09/01 04:57:20;;;;;;;;;36.25;31.00;;;;;;;;5074371;28;50974;-56
2021/09/01 04:59:46;;;;;;;;;31.00;30.00;;;;;;;;5066687;28;51346;-56
2021/09/01 05:02:11;;;;;;;;;33.75;31.25;;;;;;;;5072890;28;51944;-56
2021/09/01 05:04:36;;;;;;;;;35.25;32.00;;;;;;;;5074308;28;50911;-56
2021/09/01 05:07:01;;;;;;;;;33.00;32.00;;;;;;;;5073682;28;51033;-55
2021/09/01 05:09:27;;;;;;;;;35.00;32.25;;;;;;;;5072168;28;51235;-56
2021/09/01 05:11:52;;;;;;;;;35.25;31.00;;;;;;;;5070355;28;51016;-55
2021/09/01 05:14:17;;;;;;;;;38.75;33.00;;;;;;;;5066028;28;51198;-57
2021/09/01 05:16:42;;;;;;;;;35.00;32.75;;;;;;;;5070051;28;50871;-55
2021/09/01 05:19:09;;;;;;;;;34.25;32.00;;;;;;;;5064916;28;51059;-57
2021/09/01 05:21:39;;;;;;;;;28.75;27.75;;;;;;;;5069620;28;52333;-57
2021/09/01 05:24:05;;;;;;;;;35.50;32.00;;;;;;;;5070367;28;51106;-57
2021/09/01 05:26:31;;;;;;;;;29.00;27.00;;;;;;;;5073689;27;51235;-56
2021/09/01 05:29:00;;;;;;;;;38.50;33.00;;;;;;;;5069315;27;50899;-57
2021/09/01 05:31:30;;;;;;;;;37.25;32.25;;;;;;;;5060915;28;51979;-57
2021/09/01 05:33:56;;;;;;;;;34.50;31.75;;;;;;;;5070335;28;51083;-58
2021/09/01 05:36:21;;;;;;;;;33.50;31.00;;;;;;;;5069521;28;51097;-59
2021/09/01 05:38:47;;;;;;;;;33.25;31.00;;;;;;;;5052824;28;51160;-68
2021/09/01 05:41:12;;;;;;;;;30.50;29.00;;;;;;;;5072947;28;51752;-69
2021/09/01 05:43:38;;;;;;;;;29.25;27.25;;;;;;;;5072779;28;51127;-67
2021/09/01 05:46:04;;;;;;;;;31.25;30.00;;;;;;;;5073486;28;51315;-68
2021/09/01 05:48:29;;;;;;;;;31.00;29.50;;;;;;;;5073422;28;51211;-73
2021/09/01 05:50:55;;;;;;;;;27.75;26.50;;;;;;;;5072991;28;51178;-69
2021/09/01 05:53:21;;;;;;;;;29.00;28.75;;;;;;;;5073331;28;51057;-69
2021/09/01 05:55:48;;;;;;;;;31.50;29.25;;;;;;;;5072864;28;51142;-68
2021/09/01 05:58:15;;;;;;;;;30.75;29.25;;;;;;;;5072177;28;51136;-68
2021/09/01 06:00:41;;;;;;;;;29.50;28.25;;;;;;;;5070558;28;51266;-69
2021/09/01 06:03:16;;;;;;;;;29.50;27.50;;;;;;;;5070672;28;51041;-68
2021/09/01 06:05:43;;;;;;;;;31.25;30.00;;;;;;;;5071368;28;51268;-69
2021/09/01 06:08:08;;;;;;;;;33.50;31.50;;;;;;;;5071779;28;51040;-70
2021/09/01 06:10:34;;;;;;;;;31.50;28.00;;;;;;;;5071220;28;52941;-69
2021/09/01 06:13:06;;;;;;;;;29.00;27.25;;;;;;;;5071689;28;51018;-70
2021/09/01 06:15:32;;;;;;;;;28.00;25.00;;;;;;;;5071757;28;51131;-70
2021/09/01 06:17:59;;;;;;;;;33.00;31.00;;;;;;;;5053543;28;51098;-71
2021/09/01 06:20:25;;;;;;;;;36.25;31.25;;;;;;;;5070757;28;51039;-69
2021/09/01 06:22:50;;;;;;;;;25.50;24.75;;;;;;;;5071350;28;51063;-70
2021/09/01 06:25:15;;;;;;;;;35.00;31.75;;;;;;;;5065479;28;51045;-69
2021/09/01 06:27:41;;;;;;;;;30.50;29.75;;;;;;;;5064515;28;51276;-69
2021/09/01 06:30:06;;;;;;;;;31.75;29.00;;;;;;;;5071074;28;51050;-70
2021/09/01 06:32:32;;;;;;;;;31.00;30.00;;;;;;;;5070718;28;51140;-69
2021/09/01 06:34:57;;;;;;;;;35.25;33.00;;;;;;;;5070819;28;51083;-73
2021/09/01 06:37:25;;;;;;;;;32.25;30.50;;;;;;;;5071210;28;51036;-71
2021/09/01 06:39:51;;;;;;;;;29.00;28.50;;;;;;;;5054690;28;52490;-69
2021/09/01 06:42:16;;;;;;;;;29.75;29.00;;;;;;;;5069575;28;50986;-69
2021/09/01 06:44:42;;;;;;;;;29.50;29.25;;;;;;;;5071321;28;51158;-70
2021/09/01 06:47:07;;;;;;;;;32.75;30.75;;;;;;;;5071356;28;51219;-69
2021/09/01 06:49:32;;;;;;;;;25.00;24.75;;;;;;;;5070977;28;51276;-69
2021/09/01 06:51:57;;;;;;;;;27.00;25.50;;;;;;;;5052557;28;51123;-70
2021/09/01 06:54:23;;;;;;;;;30.50;28.75;;;;;;;;5052615;28;51141;-69
2021/09/01 06:56:48;;;;;;;;;29.25;28.75;;;;;;;;5032446;28;1108929;-69
2021/09/01 06:59:13;;;;;;;;;33.75;30.25;;;;;;;;5071864;28;50922;-69
2021/09/01 07:01:38;;;;;;;;;30.75;29.00;;;;;;;;5072063;28;50918;-69
2021/09/01 07:04:04;;;;;;;;;30.75;30.00;;;;;;;;5052649;28;50963;-69
2021/09/01 07:06:29;;;;;;;;;33.50;30.25;;;;;;;;5072085;28;50911;-69
2021/09/01 07:08:54;;;;;;;;;38.75;35.25;;;;;;;;5071775;28;51118;-69
2021/09/01 07:11:19;;;;;;;;;31.50;31.00;;;;;;;;5072185;28;50982;-69
2021/09/01 07:13:45;;;;;;;;;25.50;24.50;;;;;;;;5071589;28;51058;-69
2021/09/01 07:16:12;;;;;;;;;27.75;25.00;;;;;;;;5072183;28;50984;-68
2021/09/01 07:18:37;;;;;;;;;30.75;29.50;;;;;;;;5053506;28;53173;-69
2021/09/01 07:21:03;;;;;;;;;26.50;25.25;;;;;;;;5071452;28;50890;-70
2021/09/01 07:23:28;;;;;;;;;28.00;26.00;;;;;;;;5071766;28;51088;-68
2021/09/01 07:25:53;;;;;;;;;31.75;28.00;;;;;;;;5054032;28;51046;-69
2021/09/01 07:28:18;;;;;;;;;24.00;23.75;;;;;;;;5071667;28;52658;-69
2021/09/01 07:30:44;;;;;;;;;30.75;29.25;;;;;;;;5077968;27;51060;-69
2021/09/01 07:33:09;;;;;;;;;29.50;28.50;;;;;;;;5073746;27;51071;-69
2021/09/01 07:35:34;;;;;;;;;27.75;26.75;;;;;;;;5071973;28;50895;-69
2021/09/01 07:37:59;;;;;;;;;29.75;26.00;;;;;;;;5071349;28;51075;-70
2021/09/01 07:40:24;;;;;;;;;26.75;26.25;;;;;;;;5071847;28;50910;-69
2021/09/01 07:42:50;;;;;;;;;29.00;26.75;;;;;;;;5071617;28;51045;-69
2021/09/01 07:45:16;;;;;;;;;30.25;28.75;;;;;;;;5071853;28;51200;-69
2021/09/01 07:47:48;;;;;;;;;29.00;26.75;;;;;;;;5071695;28;51023;-70
2021/09/01 07:50:14;;;;;;;;;28.25;26.75;;;;;;;;5071231;28;50976;-69
2021/09/01 07:52:39;;;;;;;;;26.25;26.00;;;;;;;;5072811;28;51157;-69
2021/09/01 07:55:05;;;;;;;;;29.75;27.50;;;;;;;;5075212;28;51024;-70
2021/09/01 07:57:30;;;;;;;;;29.75;26.75;;;;;;;;5074215;28;52202;-69
2021/09/01 07:59:56;;;;;;;;;32.50;29.50;;;;;;;;5074660;28;51188;-69
2021/09/01 08:02:22;;;;;;;;;26.50;26.00;;;;;;;;5073629;28;50985;-69
2021/09/01 08:04:47;;;;;;;;;27.50;26.50;;;;;;;;5073912;28;51381;-70
2021/09/01 08:07:12;;;;;;;;;25.75;24.25;;;;;;;;5073864;28;51685;-69
2021/09/01 08:09:37;;;;;;;;;24.50;23.75;;;;;;;;5073634;28;51133;-69
2021/09/01 08:12:03;;;;;;;;;25.50;24.25;;;;;;;;5074818;28;51137;-70
2021/09/01 08:14:28;;;;;;;;;25.00;23.00;;;;;;;;5074825;28;50943;-69
2021/09/01 08:16:53;;;;;;;;;20.50;19.75;;;;;;;;5056311;28;52141;-70
2021/09/01 08:19:18;;;;;;;;;28.50;26.00;;;;;;;;5074617;28;50993;-69
2021/09/01 08:21:44;;;;;;;;;29.75;25.75;;;;;;;;5074372;28;51073;-69
2021/09/01 08:24:09;;;;;;;;;26.50;25.75;;;;;;;;5074797;28;51305;-69
2021/09/01 08:26:34;;;;;;;;;19.75;19.00;;;;;;;;5074073;28;53037;-69
2021/09/01 08:28:59;;;;;;;;;30.00;28.00;;;;;;;;5074684;28;50969;-70
2021/09/01 08:31:24;;;;;;;;;28.50;27.00;;;;;;;;5074347;28;50982;-70
2021/09/01 08:33:50;;;;;;;;;26.75;25.50;;;;;;;;5074525;28;51291;-69
2021/09/01 08:36:15;;;;;;;;;24.75;24.00;;;;;;;;5073606;28;51223;-70
2021/09/01 08:38:40;;;;;;;;;29.00;27.50;;;;;;;;5074245;28;50991;-69
2021/09/01 08:41:05;;;;;;;;;28.25;25.50;;;;;;;;5073683;28;51085;-69
2021/09/01 08:43:31;;;;;;;;;23.50;23.00;;;;;;;;5074200;28;51350;-69
2021/09/01 08:46:00;;;;;;;;;21.25;21.25;;;;;;;;5074104;28;51238;-69
2021/09/01 08:48:26;;;;;;;;;24.25;24.25;;;;;;;;5074468;28;51057;-69
2021/09/01 08:50:51;;;;;;;;;23.75;22.50;;;;;;;;5073989;28;50979;-69
2021/09/01 08:53:17;;;;;;;;;24.00;24.00;;;;;;;;5074286;28;51340;-70
2021/09/01 08:55:42;;;;;;;;;25.50;24.25;;;;;;;;5073639;28;52103;-70
2021/09/01 08:58:07;;;;;;;;;26.00;23.00;;;;;;;;5073946;28;51017;-69
2021/09/01 09:00:32;;;;;;;;;24.00;21.75;;;;;;;;5074119;28;51040;-70
2021/09/01 09:02:59;;;;;;;;;24.33;24.33;;;;;;;;5073242;28;51134;-70
2021/09/01 09:05:35;;;;;;;;;24.00;23.75;;;;;;;;5072301;28;52195;-70
2021/09/01 09:08:01;;;;;;;;;27.00;25.33;;;;;;;;5073707;28;50912;-69
2021/09/01 09:10:28;;;;;;;;;25.75;24.25;;;;;;;;5073606;28;51196;-69
2021/09/01 09:12:57;;;;;;;;;29.00;27.00;;;;;;;;5055608;28;51302;-69
2021/09/01 09:15:23;;;;;;;;;24.25;24.25;;;;;;;;5054368;28;52717;-69
2021/09/01 09:17:48;;;;;;;;;26.75;25.75;;;;;;;;5054719;28;51138;-69
2021/09/01 09:20:13;;;;;;;;;19.33;19.00;;;;;;;;5073231;28;51178;-70
2021/09/01 09:22:42;;;;;;;;;22.67;21.33;;;;;;;;5073580;28;51149;-69
2021/09/01 09:25:14;;;;;;;;;23.33;22.00;;;;;;;;5072975;28;51056;-71
2021/09/01 09:27:50;;;;;;;;;23.67;22.00;;;;;;;;5073058;28;51123;-70
2021/09/01 09:30:25;;;;;;;;;19.67;19.67;;;;;;;;5069712;27;51011;-70
2021/09/01 09:32:56;;;;;;;;;21.67;21.00;;;;;;;;5068229;28;51419;-69
2021/09/01 09:35:21;;;;;;;;;21.33;20.67;;;;;;;;5072683;28;50978;-70
2021/09/01 09:38:07;;;;;;;;;21.00;20.33;;;;;;;;5073092;28;50941;-71
2021/09/01 09:40:33;;;;;;;;;22.75;21.25;;;;;;;;5072546;28;51026;-70
2021/09/01 09:43:12;;;;;;;;;22.50;22.50;;;;;;;;5072863;28;50965;-70
2021/09/01 09:45:37;;;;;;;;;22.50;21.25;;;;;;;;5054282;28;53084;-70
2021/09/01 09:48:03;;;;;;;;;20.50;20.50;;;;;;;;5073164;28;50891;-70
2021/09/01 09:50:28;;;;;;;;;20.25;20.00;;;;;;;;5072133;28;50957;-70
2021/09/01 09:52:53;;;;;;;;;20.00;19.67;;;;;;;;5055138;28;50845;-70
2021/09/01 09:55:20;;;;;;;;;16.25;16.25;;;;;;;;5072726;28;51904;-69
2021/09/01 09:58:05;;;;;;;;;21.67;21.67;;;;;;;;5054569;28;51083;-69
2021/09/01 10:00:31;;;;;;;;;21.33;20.33;;;;;;;;5072069;27;51112;-69
2021/09/01 10:02:56;;;;;;;;;21.67;21.67;;;;;;;;5072035;28;51372;-69
2021/09/01 10:05:23;;;;;;;;;24.00;22.67;;;;;;;;5072206;28;51220;-70
2021/09/01 10:07:48;;;;;;;;;19.33;17.67;;;;;;;;5072481;28;50996;-70
2021/09/01 10:10:14;;;;;;;;;16.75;16.50;;;;;;;;5072605;28;51024;-70
2021/09/01 10:12:41;;;;;;;;;22.67;22.00;;;;;;;;5071831;28;51370;-70
2021/09/01 10:15:08;;;;;;;;;21.00;21.00;;;;;;;;5071435;28;50997;-70
2021/09/01 10:17:38;;;;;;;;;21.67;18.67;;;;;;;;5072368;28;51070;-70
2021/09/01 10:20:05;;;;;;;;;21.00;20.33;;;;;;;;5072264;28;51014;-70
2021/09/01 10:22:30;;;;;;;;;20.33;19.00;;;;;;;;5072338;28;51331;-69
2021/09/01 10:24:55;;;;;;;;;19.25;18.75;;;;;;;;5071784;28;52223;-69
2021/09/01 10:27:23;;;;;;;;;21.00;21.00;;;;;;;;5072016;28;51032;-69
2021/09/01 10:29:55;;;;;;;;;21.00;21.00;;;;;;;;5071895;28;51087;-70
2021/09/01 10:32:22;;;;;;;;;20.25;19.75;;;;;;;;5053724;28;50946;-70
2021/09/01 10:34:48;;;;;;;;;19.00;18.75;;;;;;;;5071441;28;51845;-70
2021/09/01 10:37:37;;;;;;;;;21.25;20.00;;;;;;;;5072383;28;50911;-70
2021/09/01 10:40:02;;;;;;;;;17.00;17.00;;;;;;;;5060305;28;51095;-70
2021/09/01 10:42:41;;;;;;;;;18.75;18.75;;;;;;;;5072003;28;50929;-70
2021/09/01 10:45:08;;;;;;;;;19.00;18.75;;;;;;;;5071955;28;53114;-70
2021/09/01 10:47:51;;;;;;;;;17.50;15.50;;;;;;;;5071584;28;50913;-70
2021/09/01 10:50:23;;;;;;;;;19.75;17.75;;;;;;;;5071289;28;51171;-70
2021/09/01 10:53:11;;;;;;;;;16.50;16.50;;;;;;;;5072271;28;50923;-70
2021/09/01 10:56:06;;;;;;;;;18.75;17.75;;;;;;;;5060144;28;51289;-70
2021/09/01 10:58:41;;;;;;;;;16.75;16.00;;;;;;;;5054030;28;51239;-70
2021/09/01 11:01:11;;;;;;;;;17.00;16.67;;;;;;;;5071931;28;51003;-70
2021/09/01 11:03:39;;;;;;;;;20.00;19.00;;;;;;;;5052295;28;51564;-70
2021/09/01 11:06:14;;;;;;;;;20.75;20.50;;;;;;;;5070701;28;52212;-71
2021/09/01 11:08:55;;;;;;;;;18.25;18.00;;;;;;;;5071388;28;51077;-70
2021/09/01 11:11:20;;;;;;;;;17.75;17.50;;;;;;;;5071753;28;51053;-70
2021/09/01 11:13:45;;;;;;;;;23.00;22.25;;;;;;;;5071337;28;51040;-71
2021/09/01 11:16:20;;;;;;;;;19.50;19.50;;;;;;;;5071422;28;51265;-71
2021/09/01 11:19:05;;;;;;;;;19.75;17.50;;;;;;;;5070908;28;51073;-71
2021/09/01 11:21:31;;;;;;;;;16.25;15.75;;;;;;;;5070985;28;51231;-71
2021/09/01 11:23:57;;;;;;;;;12.75;12.75;;;;;;;;5071200;28;50985;-71
2021/09/01 11:26:29;;;;;;;;;15.25;15.00;;;;;;;;5071302;28;52541;-70
2021/09/01 11:28:55;;;;;;;;;17.75;17.75;;;;;;;;5074447;28;51041;-70
2021/09/01 11:31:21;;;;;;;;;17.50;17.00;;;;;;;;5070934;27;52058;-70
2021/09/01 11:33:46;;;;;;;;;18.67;18.00;;;;;;;;5064487;28;51377;-70
2021/09/01 11:36:11;;;;;;;;;19.50;18.25;;;;;;;;5073727;28;52113;-70
2021/09/01 11:38:43;;;;;;;;;17.25;17.25;;;;;;;;5074394;28;51098;-70
2021/09/01 11:41:09;;;;;;;;;19.00;18.50;;;;;;;;5056110;28;51196;-71
2021/09/01 11:43:34;;;;;;;;;18.25;17.50;;;;;;;;5074625;28;51025;-70
2021/09/01 11:45:59;;;;;;;;;16.00;14.75;;;;;;;;5073884;28;51066;-71
2021/09/01 11:48:25;;;;;;;;;16.00;15.67;;;;;;;;5074426;28;50962;-69
2021/09/01 11:50:50;;;;;;;;;15.33;15.33;;;;;;;;5073934;28;51172;-70
2021/09/01 11:53:16;;;;;;;;;17.00;17.00;;;;;;;;5074128;28;51069;-70
2021/09/01 11:55:42;;;;;;;;;14.67;14.33;;;;;;;;5055378;28;53884;-70
2021/09/01 11:58:17;;;;;;;;;16.33;15.00;;;;;;;;5073319;28;52107;-71
2021/09/01 12:00:44;;;;;;;;;15.67;15.67;;;;;;;;5074013;28;50981;-70
2021/09/01 12:03:12;;;;;;;;;17.33;17.33;;;;;;;;5072851;28;51288;-70
2021/09/01 12:05:40;;;;;;;;;16.00;15.00;;;;;;;;5073328;28;50989;-71
2021/09/01 12:08:14;;;;;;;;;15.67;14.33;;;;;;;;5074032;28;51166;-71
2021/09/01 12:10:40;;;;;;;;;17.33;16.33;;;;;;;;5073804;28;50828;-70
2021/09/01 12:13:05;;;;;;;;;16.33;15.33;;;;;;;;5070640;28;51307;-72
2021/09/01 12:15:30;;;;;;;;;15.33;15.00;;;;;;;;5055288;28;52835;-71
2021/09/01 12:18:00;;;;;;;;;15.00;14.33;;;;;;;;5074224;28;51307;-71
2021/09/01 12:20:25;;;;;;;;;18.00;17.00;;;;;;;;5073838;28;51060;-71
2021/09/01 12:22:50;;;;;;;;;19.33;18.67;;;;;;;;5073815;28;50972;-70
2021/09/01 12:25:19;;;;;;;;;17.67;17.00;;;;;;;;5073832;28;52498;-72
2021/09/01 12:28:03;;;;;;;;;17.67;17.00;;;;;;;;5073826;28;50875;-71
2021/09/01 12:30:30;;;;;;;;;19.00;17.00;;;;;;;;5073947;28;50922;-72
2021/09/01 12:32:55;;;;;;;;;19.67;18.33;;;;;;;;5074205;28;51001;-71
2021/09/01 12:35:25;;;;;;;;;17.33;17.33;;;;;;;;5073386;28;51859;-71
2021/09/01 12:37:53;;;;;;;;;16.33;15.33;;;;;;;;5073608;27;51107;-71
2021/09/01 12:40:18;;;;;;;;;17.00;16.00;;;;;;;;5074029;28;50971;-71
2021/09/01 12:42:44;;;;;;;;;17.00;17.00;;;;;;;;5073780;28;51108;-71
2021/09/01 12:45:18;;;;;;;;;20.00;19.33;;;;;;;;5073682;28;51278;-71
2021/09/01 12:47:51;;;;;;;;;19.00;19.00;;;;;;;;5073227;28;51071;-71
2021/09/01 12:50:17;;;;;;;;;19.67;18.33;;;;;;;;5054818;28;51055;-71
2021/09/01 12:52:42;;;;;;;;;16.00;16.00;;;;;;;;5073489;28;51021;-71
2021/09/01 12:55:08;;;;;;;;;18.00;17.67;;;;;;;;5072779;28;51969;-70
2021/09/01 12:57:33;;;;;;;;;18.00;16.50;;;;;;;;5054833;28;51151;-71
2021/09/01 12:59:58;;;;;;;;;19.33;19.33;;;;;;;;5073458;28;51097;-70
2021/09/01 13:02:23;;;;;;;;;15.33;14.33;;;;;;;;5072794;28;51254;-70
2021/09/01 13:04:49;;;;;;;;;15.67;15.67;;;;;;;;5072969;28;52308;-70
2021/09/01 13:07:14;;;;;;;;;18.67;17.33;;;;;;;;5073422;28;50893;-71
2021/09/01 13:09:40;;;;;;;;;18.75;17.25;;;;;;;;5073594;28;51018;-72
2021/09/01 13:12:05;;;;;;;;;17.00;16.00;;;;;;;;5065810;28;51243;-69
2021/09/01 13:14:31;;;;;;;;;14.67;14.33;;;;;;;;5055018;28;51829;-71
2021/09/01 13:16:56;;;;;;;;;17.33;16.33;;;;;;;;5073238;28;51139;-70
2021/09/01 13:19:22;;;;;;;;;16.00;16.00;;;;;;;;5073559;28;51062;-69
2021/09/01 13:21:48;;;;;;;;;15.33;14.33;;;;;;;;5073156;28;51760;-71
2021/09/01 13:24:13;;;;;;;;;17.00;17.00;;;;;;;;5073234;28;51232;-71
2021/09/01 13:26:38;;;;;;;;;17.33;16.67;;;;;;;;5072431;28;51199;-71
2021/09/01 13:29:04;;;;;;;;;18.00;18.00;;;;;;;;5072743;28;51002;-71
2021/09/01 13:31:31;;;;;;;;;17.67;17.33;;;;;;;;5072272;28;50904;-71
2021/09/01 13:33:57;;;;;;;;;17.00;17.00;;;;;;;;5058230;27;51026;-71
2021/09/01 13:36:22;;;;;;;;;15.67;14.33;;;;;;;;5070043;28;51143;-71
2021/09/01 13:38:48;;;;;;;;;15.67;15.33;;;;;;;;5072681;28;51033;-71
2021/09/01 13:41:13;;;;;;;;;15.00;13.33;;;;;;;;5072637;28;50796;-70
2021/09/01 13:43:38;;;;;;;;;12.33;12.33;;;;;;;;5072139;28;51187;-70
2021/09/01 13:46:03;;;;;;;;;13.67;13.67;;;;;;;;5072065;28;51084;-71
2021/09/01 13:48:29;;;;;;;;;12.00;11.33;;;;;;;;5072657;28;51283;-70
2021/09/01 13:50:55;;;;;;;;;13.67;13.67;;;;;;;;5071425;28;51175;-71
2021/09/01 13:53:20;;;;;;;;;15.00;13.00;;;;;;;;5053885;28;52941;-71
2021/09/01 13:55:46;;;;;;;;;14.33;14.00;;;;;;;;5071356;28;51317;-71
2021/09/01 13:58:11;;;;;;;;;16.33;15.33;;;;;;;;5064616;27;51069;-71
2021/09/01 14:00:36;;;;;;;;;14.67;14.00;;;;;;;;5048813;28;51140;-69
2021/09/01 14:03:02;;;;;;;;;16.00;15.33;;;;;;;;5068304;28;52048;-70
2021/09/01 14:05:28;;;;;;;;;15.33;15.33;;;;;;;;5069669;28;51184;-70
2021/09/01 14:07:53;;;;;;;;;16.33;15.33;;;;;;;;5056309;28;51276;-69
2021/09/01 14:10:18;;;;;;;;;17.67;17.00;;;;;;;;5062297;28;51298;-70
2021/09/01 14:12:46;;;;;;;;;16.00;16.00;;;;;;;;5071831;28;52189;-71